Погода Хамайна неделю

Халиско, Мексика

26 февраля-03 марта
  • 26февраля
    Сегодня
    +11°
    +31°
    Ясно и безоблачно
    ВремяПогодаТемператураВлажностьДавлениеВетер, м/сВероятность осадков
    00:00Ясно и безоблачно+19°C68 %637 мм1.7 м/с2 %
    03:00Ясно и безоблачно+14°C74 %635 мм1.2 м/с2 %
    06:00Ясно и безоблачно+13°C80 %635 мм1.3 м/с2 %
    09:00Ясно и безоблачно+15°C60 %637 мм0.7 м/с2 %
    12:00Ясно и безоблачно+25°C41 %640 мм2.0 м/с2 %
    15:00Ясно и безоблачно+29°C29 %637 мм2.8 м/с2 %
    18:00Ясно и безоблачно+29°C26 %636 мм2.5 м/с2 %
    21:00Ясно и безоблачно+23°C55 %635 мм2.3 м/с2 %
  • 27февраля
    Вторник
    +11°
    +31°
    Ясно и безоблачно
    ВремяПогодаТемператураВлажностьДавлениеВетер, м/сВероятность осадков
    00:00Ясно и безоблачно+19°C74 %635 мм1.5 м/с2 %
    03:00Ясно и безоблачно+16°C70 %634 мм1.1 м/с2 %
    06:00Ясно и безоблачно+12°C82 %633 мм1.7 м/с2 %
    09:00Ясно и безоблачно+15°C61 %636 мм0.6 м/с2 %
    12:00Практически безоблачно+26°C37 %638 мм2.2 м/с2 %
    15:00Ясно и безоблачно+30°C23 %636 мм3.4 м/с2 %
    18:00Ясно и безоблачно+29°C28 %635 мм2.1 м/с2 %
    21:00Ясно и безоблачно+23°C57 %635 мм2.9 м/с2 %
  • 28февраля
    Среда
    +11°
    +30°
    Облачно с прояснениями
    ВремяПогодаТемператураВлажностьДавлениеВетер, м/сВероятность осадков
    00:00Ясно и безоблачно+19°C64 %635 мм2.3 м/с2 %
    03:00Ясно и безоблачно+16°C65 %633 мм0.7 м/с2 %
    06:00Ясно и безоблачно+13°C76 %633 мм1.8 м/с2 %
    09:00Ясно и безоблачно+16°C53 %636 мм0.9 м/с2 %
    12:00Ясно и безоблачно+26°C30 %638 мм2.5 м/с2 %
    15:00Облачно с прояснениями+29°C22 %636 мм3.7 м/с2 %
    18:00Небольшая облачность+29°C26 %635 мм2.5 м/с2 %
    21:00Облачно с прояснениями+23°C49 %635 мм1.7 м/с2 %
  • 29февраля
    Четверг
    +13°
    +31°
    Практически безоблачно
    ВремяПогодаТемператураВлажностьДавлениеВетер, м/сВероятность осадков
    00:00Облачно с прояснениями+19°C62 %635 мм1.9 м/с2 %
    03:00Ясно и безоблачно+15°C62 %634 мм2.1 м/с2 %
    06:00Ясно и безоблачно+13°C67 %634 мм1.4 м/с2 %
    09:00Ясно и безоблачно+17°C54 %637 мм0.9 м/с2 %
    12:00Практически безоблачно+27°C35 %639 мм1.4 м/с2 %
    15:00Практически безоблачно+30°C27 %637 мм3.0 м/с2 %
    18:00Облачно с прояснениями+31°C30 %637 мм1.2 м/с2 %
    21:00Облачно с прояснениями+23°C56 %636 мм2.6 м/с2 %
  • 01марта
    Пятница
    +12°
    +29°
    Облачно с прояснениями
    ВремяПогодаТемператураВлажностьДавлениеВетер, м/сВероятность осадков
    00:00Небольшая облачность+20°C50 %636 мм2.7 м/с2 %
    03:00Облачно с прояснениями+17°C59 %635 мм0.7 м/с2 %
    06:00Облачно с прояснениями+13°C64 %634 мм1.3 м/с2 %
    09:00Небольшая облачность+16°C52 %637 мм0.8 м/с2 %
    12:00Небольшая облачность+26°C26 %639 мм1.8 м/с2 %
    15:00Облачно с прояснениями+29°C24 %637 мм3.4 м/с2 %
    18:00Небольшая облачность+29°C26 %636 мм2.6 м/с2 %
    21:00Небольшая облачность+22°C45 %636 мм2.7 м/с2 %
Мы используем cookies
Соглашаюсь